sensor_id;sensor_type;location;lat;lon;timestamp;pressure;altitude;pressure_sealevel;temperature;humidity
69971;BME280;57301;50.328;8.542;2022-10-16T00:01:20;98223.78;;;13.86;94.90
69971;BME280;57301;50.328;8.542;2022-10-16T00:03:47;98216.03;;;13.91;95.38
69971;BME280;57301;50.328;8.542;2022-10-16T00:06:16;98222.59;;;13.88;96.44
69971;BME280;57301;50.328;8.542;2022-10-16T00:08:43;98220.22;;;13.93;96.63
69971;BME280;57301;50.328;8.542;2022-10-16T00:11:16;98219.72;;;13.90;97.04
69971;BME280;57301;50.328;8.542;2022-10-16T00:13:45;98218.63;;;13.99;97.16
69971;BME280;57301;50.328;8.542;2022-10-16T00:16:12;98219.75;;;14.05;97.02
69971;BME280;57301;50.328;8.542;2022-10-16T00:18:40;98212.03;;;13.87;98.41
69971;BME280;57301;50.328;8.542;2022-10-16T00:21:12;98217.34;;;13.95;97.88
69971;BME280;57301;50.328;8.542;2022-10-16T00:23:39;98211.06;;;14.03;97.04
69971;BME280;57301;50.328;8.542;2022-10-16T00:26:12;98215.06;;;14.07;97.08
69971;BME280;57301;50.328;8.542;2022-10-16T00:28:40;98218.91;;;13.89;97.85
69971;BME280;57301;50.328;8.542;2022-10-16T00:31:09;98226.66;;;13.99;97.54
69971;BME280;57301;50.328;8.542;2022-10-16T00:33:37;98229.34;;;13.99;97.14
69971;BME280;57301;50.328;8.542;2022-10-16T00:36:06;98223.88;;;13.92;97.62
69971;BME280;57301;50.328;8.542;2022-10-16T00:38:34;98217.53;;;13.93;97.43
69971;BME280;57301;50.328;8.542;2022-10-16T00:41:00;98211.44;;;14.00;97.25
69971;BME280;57301;50.328;8.542;2022-10-16T00:44:00;98214.38;;;13.90;97.40
69971;BME280;57301;50.328;8.542;2022-10-16T00:49:02;98221.28;;;13.84;97.03
69971;BME280;57301;50.328;8.542;2022-10-16T00:51:33;98224.69;;;13.78;97.52
69971;BME280;57301;50.328;8.542;2022-10-16T00:54:08;98211.94;;;13.80;97.45
69971;BME280;57301;50.328;8.542;2022-10-16T00:56:35;98225.63;;;13.85;97.16
69971;BME280;57301;50.328;8.542;2022-10-16T00:59:06;98228.69;;;13.82;97.40
69971;BME280;57301;50.328;8.542;2022-10-16T01:01:34;98225.72;;;13.77;97.56
69971;BME280;57301;50.328;8.542;2022-10-16T01:04:00;98219.16;;;13.80;97.50
69971;BME280;57301;50.328;8.542;2022-10-16T01:06:42;98234.25;;;13.95;96.14
69971;BME280;57301;50.328;8.542;2022-10-16T01:09:23;98238.78;;;13.95;96.33
69971;BME280;57301;50.328;8.542;2022-10-16T01:12:14;98246.72;;;13.88;96.69
69971;BME280;57301;50.328;8.542;2022-10-16T01:14:53;98242.84;;;13.91;96.83
69971;BME280;57301;50.328;8.542;2022-10-16T01:20:28;98249.53;;;14.10;95.91
69971;BME280;57301;50.328;8.542;2022-10-16T01:23:07;98254.88;;;13.95;97.29
69971;BME280;57301;50.328;8.542;2022-10-16T01:28:22;98254.34;;;14.14;96.15
69971;BME280;57301;50.328;8.542;2022-10-16T01:30:53;98240.13;;;14.14;95.79
69971;BME280;57301;50.328;8.542;2022-10-16T01:33:35;98232.38;;;14.34;95.20
69971;BME280;57301;50.328;8.542;2022-10-16T01:36:24;98240.88;;;14.22;95.48
69971;BME280;57301;50.328;8.542;2022-10-16T01:38:54;98247.78;;;14.17;95.41
69971;BME280;57301;50.328;8.542;2022-10-16T01:41:35;98249.94;;;14.36;95.31
69971;BME280;57301;50.328;8.542;2022-10-16T01:44:08;98258.66;;;14.38;94.33
69971;BME280;57301;50.328;8.542;2022-10-16T01:46:38;98259.22;;;14.48;93.85
69971;BME280;57301;50.328;8.542;2022-10-16T01:49:06;98254.06;;;14.47;93.76
69971;BME280;57301;50.328;8.542;2022-10-16T01:51:36;98229.69;;;14.34;94.82
69971;BME280;57301;50.328;8.542;2022-10-16T01:54:07;98236.66;;;14.43;93.78
69971;BME280;57301;50.328;8.542;2022-10-16T01:56:35;98238.38;;;14.21;94.77
69971;BME280;57301;50.328;8.542;2022-10-16T01:59:10;98244.03;;;14.41;94.69
69971;BME280;57301;50.328;8.542;2022-10-16T02:01:40;98246.81;;;14.33;94.82
69971;BME280;57301;50.328;8.542;2022-10-16T02:04:24;98250.69;;;14.45;93.34
69971;BME280;57301;50.328;8.542;2022-10-16T02:06:53;98252.13;;;14.56;93.20
69971;BME280;57301;50.328;8.542;2022-10-16T02:09:20;98256.28;;;14.58;92.80
69971;BME280;57301;50.328;8.542;2022-10-16T02:11:46;98264.59;;;14.48;93.54
69971;BME280;57301;50.328;8.542;2022-10-16T02:14:15;98264.44;;;14.50;93.74
69971;BME280;57301;50.328;8.542;2022-10-16T02:16:44;98269.56;;;14.37;94.61
69971;BME280;57301;50.328;8.542;2022-10-16T02:19:15;98262.09;;;14.47;93.75
69971;BME280;57301;50.328;8.542;2022-10-16T02:26:44;98265.91;;;14.52;93.84
69971;BME280;57301;50.328;8.542;2022-10-16T02:29:14;98258.03;;;14.51;93.02
69971;BME280;57301;50.328;8.542;2022-10-16T02:31:46;98258.16;;;14.35;95.02
69971;BME280;57301;50.328;8.542;2022-10-16T02:34:14;98253.25;;;14.23;95.03
69971;BME280;57301;50.328;8.542;2022-10-16T02:36:42;98255.69;;;14.33;94.90
69971;BME280;57301;50.328;8.542;2022-10-16T02:39:10;98264.38;;;14.35;94.78
69971;BME280;57301;50.328;8.542;2022-10-16T02:41:37;98253.63;;;14.20;95.98
69971;BME280;57301;50.328;8.542;2022-10-16T02:44:04;98251.78;;;14.36;95.11
69971;BME280;57301;50.328;8.542;2022-10-16T02:46:30;98266.22;;;14.35;95.53
69971;BME280;57301;50.328;8.542;2022-10-16T02:48:57;98269.56;;;14.37;94.60
69971;BME280;57301;50.328;8.542;2022-10-16T02:51:23;98274.34;;;14.27;94.76
69971;BME280;57301;50.328;8.542;2022-10-16T02:53:50;98283.78;;;14.22;95.71
69971;BME280;57301;50.328;8.542;2022-10-16T02:56:16;98284.78;;;14.21;96.02
69971;BME280;57301;50.328;8.542;2022-10-16T02:58:48;98286.94;;;14.26;96.36
69971;BME280;57301;50.328;8.542;2022-10-16T03:01:14;98279.63;;;14.20;96.30
69971;BME280;57301;50.328;8.542;2022-10-16T03:03:42;98288.88;;;14.32;95.31
69971;BME280;57301;50.328;8.542;2022-10-16T03:06:09;98301.16;;;14.49;94.93
69971;BME280;57301;50.328;8.542;2022-10-16T03:08:35;98314.00;;;14.54;94.89
69971;BME280;57301;50.328;8.542;2022-10-16T03:11:02;98319.31;;;14.24;93.70
69971;BME280;57301;50.328;8.542;2022-10-16T03:13:28;98329.38;;;14.22;95.22
69971;BME280;57301;50.328;8.542;2022-10-16T03:15:55;98319.13;;;14.03;90.29
69971;BME280;57301;50.328;8.542;2022-10-16T03:18:21;98313.78;;;13.80;86.45
69971;BME280;57301;50.328;8.542;2022-10-16T03:20:48;98308.41;;;13.80;86.74
69971;BME280;57301;50.328;8.542;2022-10-16T03:23:14;98317.47;;;13.56;88.99
69971;BME280;57301;50.328;8.542;2022-10-16T03:25:41;98323.25;;;13.68;89.10
69971;BME280;57301;50.328;8.542;2022-10-16T03:28:07;98319.44;;;13.85;89.07
69971;BME280;57301;50.328;8.542;2022-10-16T03:30:34;98318.63;;;13.85;88.03
69971;BME280;57301;50.328;8.542;2022-10-16T03:33:01;98309.44;;;13.79;88.86
69971;BME280;57301;50.328;8.542;2022-10-16T03:35:27;98301.16;;;13.89;89.22
69971;BME280;57301;50.328;8.542;2022-10-16T03:37:53;98294.69;;;13.83;90.36
69971;BME280;57301;50.328;8.542;2022-10-16T03:40:20;98298.44;;;13.51;90.61
69971;BME280;57301;50.328;8.542;2022-10-16T03:42:47;98306.59;;;13.27;92.00
69971;BME280;57301;50.328;8.542;2022-10-16T03:45:13;98315.97;;;13.23;91.44
69971;BME280;57301;50.328;8.542;2022-10-16T03:47:39;98309.94;;;13.29;91.71
69971;BME280;57301;50.328;8.542;2022-10-16T03:50:06;98300.88;;;13.30;90.84
69971;BME280;57301;50.328;8.542;2022-10-16T03:52:33;98308.91;;;13.30;91.50
69971;BME280;57301;50.328;8.542;2022-10-16T03:54:59;98310.25;;;13.34;92.09
69971;BME280;57301;50.328;8.542;2022-10-16T03:57:26;98309.09;;;13.28;92.00
69971;BME280;57301;50.328;8.542;2022-10-16T03:59:53;98317.00;;;13.22;93.78
69971;BME280;57301;50.328;8.542;2022-10-16T04:02:19;98321.16;;;13.24;94.30
69971;BME280;57301;50.328;8.542;2022-10-16T04:04:46;98319.22;;;13.41;93.46
69971;BME280;57301;50.328;8.542;2022-10-16T04:07:12;98311.75;;;13.59;92.63
69971;BME280;57301;50.328;8.542;2022-10-16T04:09:39;98311.34;;;13.70;92.53
69971;BME280;57301;50.328;8.542;2022-10-16T04:12:05;98312.72;;;13.66;92.92
69971;BME280;57301;50.328;8.542;2022-10-16T04:14:31;98312.00;;;13.73;92.52
69971;BME280;57301;50.328;8.542;2022-10-16T04:16:58;98317.28;;;13.81;92.54
69971;BME280;57301;50.328;8.542;2022-10-16T04:19:24;98316.47;;;13.57;93.86
69971;BME280;57301;50.328;8.542;2022-10-16T04:21:51;98331.03;;;13.55;94.79
69971;BME280;57301;50.328;8.542;2022-10-16T04:24:17;98327.47;;;13.62;94.24
69971;BME280;57301;50.328;8.542;2022-10-16T04:26:44;98331.84;;;13.63;94.16
69971;BME280;57301;50.328;8.542;2022-10-16T04:29:10;98338.16;;;13.70;93.69
69971;BME280;57301;50.328;8.542;2022-10-16T04:31:36;98340.47;;;13.74;93.54
69971;BME280;57301;50.328;8.542;2022-10-16T04:34:03;98355.41;;;13.68;93.28
69971;BME280;57301;50.328;8.542;2022-10-16T04:36:29;98349.34;;;13.74;93.23
69971;BME280;57301;50.328;8.542;2022-10-16T04:38:56;98353.03;;;13.73;93.46
69971;BME280;57301;50.328;8.542;2022-10-16T04:41:22;98341.00;;;13.69;92.69
69971;BME280;57301;50.328;8.542;2022-10-16T04:43:49;98346.19;;;13.70;92.88
69971;BME280;57301;50.328;8.542;2022-10-16T04:46:15;98343.03;;;13.67;93.06
69971;BME280;57301;50.328;8.542;2022-10-16T04:48:41;98341.16;;;13.67;93.58
69971;BME280;57301;50.328;8.542;2022-10-16T04:51:08;98347.38;;;13.37;95.84
69971;BME280;57301;50.328;8.542;2022-10-16T04:53:34;98344.78;;;13.52;95.20
69971;BME280;57301;50.328;8.542;2022-10-16T04:56:01;98342.44;;;13.57;94.48
69971;BME280;57301;50.328;8.542;2022-10-16T04:58:27;98345.50;;;13.68;94.12
69971;BME280;57301;50.328;8.542;2022-10-16T05:00:54;98345.06;;;13.65;94.04
69971;BME280;57301;50.328;8.542;2022-10-16T05:03:20;98342.06;;;13.60;94.62
69971;BME280;57301;50.328;8.542;2022-10-16T05:05:47;98347.09;;;13.55;95.33
69971;BME280;57301;50.328;8.542;2022-10-16T05:08:14;98350.22;;;13.66;94.46
69971;BME280;57301;50.328;8.542;2022-10-16T05:10:41;98347.09;;;13.63;94.41
69971;BME280;57301;50.328;8.542;2022-10-16T05:13:08;98346.91;;;13.64;94.85
69971;BME280;57301;50.328;8.542;2022-10-16T05:15:35;98337.97;;;13.72;94.02
69971;BME280;57301;50.328;8.542;2022-10-16T05:18:02;98348.50;;;13.74;94.36
69971;BME280;57301;50.328;8.542;2022-10-16T05:20:28;98347.84;;;13.71;94.54
69971;BME280;57301;50.328;8.542;2022-10-16T05:22:55;98345.81;;;13.74;94.13
69971;BME280;57301;50.328;8.542;2022-10-16T05:25:21;98355.25;;;13.69;94.94
69971;BME280;57301;50.328;8.542;2022-10-16T05:27:48;98349.34;;;13.74;94.46
69971;BME280;57301;50.328;8.542;2022-10-16T05:30:18;98337.63;;;13.75;94.85
69971;BME280;57301;50.328;8.542;2022-10-16T05:32:49;98337.19;;;13.63;95.55
69971;BME280;57301;50.328;8.542;2022-10-16T05:35:17;98346.94;;;13.56;98.52
69971;BME280;57301;50.328;8.542;2022-10-16T05:37:45;98351.16;;;13.51;100.00
69971;BME280;57301;50.328;8.542;2022-10-16T05:40:12;98351.13;;;13.59;100.00
69971;BME280;57301;50.328;8.542;2022-10-16T05:42:39;98342.84;;;13.68;100.00
69971;BME280;57301;50.328;8.542;2022-10-16T05:45:07;98349.22;;;13.90;99.76
69971;BME280;57301;50.328;8.542;2022-10-16T05:47:35;98347.91;;;13.86;99.34
69971;BME280;57301;50.328;8.542;2022-10-16T05:50:01;98342.13;;;13.97;99.31
69971;BME280;57301;50.328;8.542;2022-10-16T05:52:28;98355.31;;;14.07;98.90
69971;BME280;57301;50.328;8.542;2022-10-16T05:54:54;98354.41;;;13.92;99.96
69971;BME280;57301;50.328;8.542;2022-10-16T05:57:21;98350.84;;;14.00;99.60
69971;BME280;57301;50.328;8.542;2022-10-16T05:59:47;98351.56;;;13.93;100.00
69971;BME280;57301;50.328;8.542;2022-10-16T06:02:14;98361.22;;;14.03;100.00
69971;BME280;57301;50.328;8.542;2022-10-16T06:04:40;98365.84;;;14.09;99.86
69971;BME280;57301;50.328;8.542;2022-10-16T06:07:07;98378.31;;;14.24;98.86
69971;BME280;57301;50.328;8.542;2022-10-16T06:09:33;98369.28;;;14.40;97.58
69971;BME280;57301;50.328;8.542;2022-10-16T06:12:00;98370.50;;;14.38;98.17
69971;BME280;57301;50.328;8.542;2022-10-16T06:14:26;98382.31;;;14.06;100.00
69971;BME280;57301;50.328;8.542;2022-10-16T06:16:53;98373.72;;;14.10;100.00
69971;BME280;57301;50.328;8.542;2022-10-16T06:19:19;98377.22;;;14.11;100.00
69971;BME280;57301;50.328;8.542;2022-10-16T06:21:45;98371.31;;;14.38;99.52
69971;BME280;57301;50.328;8.542;2022-10-16T06:24:12;98384.03;;;14.21;99.79
69971;BME280;57301;50.328;8.542;2022-10-16T06:26:38;98377.03;;;14.35;99.18
69971;BME280;57301;50.328;8.542;2022-10-16T06:29:05;98391.44;;;14.19;99.92
69971;BME280;57301;50.328;8.542;2022-10-16T06:31:32;98394.81;;;14.13;100.00
69971;BME280;57301;50.328;8.542;2022-10-16T06:34:00;98392.72;;;14.23;100.00
69971;BME280;57301;50.328;8.542;2022-10-16T06:36:27;98409.91;;;14.14;100.00
69971;BME280;57301;50.328;8.542;2022-10-16T06:38:53;98409.06;;;14.14;100.00
69971;BME280;57301;50.328;8.542;2022-10-16T06:41:21;98415.47;;;14.05;100.00
69971;BME280;57301;50.328;8.542;2022-10-16T06:43:48;98405.47;;;14.21;100.00
69971;BME280;57301;50.328;8.542;2022-10-16T06:46:18;98411.91;;;14.35;100.00
69971;BME280;57301;50.328;8.542;2022-10-16T06:48:46;98402.44;;;14.47;99.96
69971;BME280;57301;50.328;8.542;2022-10-16T06:51:15;98402.19;;;14.34;99.80
69971;BME280;57301;50.328;8.542;2022-10-16T06:53:47;98407.94;;;14.54;98.45
69971;BME280;57301;50.328;8.542;2022-10-16T06:56:32;98406.22;;;14.61;97.80
69971;BME280;57301;50.328;8.542;2022-10-16T06:58:59;98408.28;;;14.74;96.90
69971;BME280;57301;50.328;8.542;2022-10-16T07:01:27;98414.38;;;14.83;96.50
69971;BME280;57301;50.328;8.542;2022-10-16T07:03:53;98428.41;;;14.55;97.42
69971;BME280;57301;50.328;8.542;2022-10-16T07:06:22;98443.09;;;14.59;97.60
69971;BME280;57301;50.328;8.542;2022-10-16T07:08:49;98440.81;;;14.56;97.89
69971;BME280;57301;50.328;8.542;2022-10-16T07:11:20;98429.75;;;14.74;97.52
69971;BME280;57301;50.328;8.542;2022-10-16T07:13:48;98442.25;;;14.82;96.63
69971;BME280;57301;50.328;8.542;2022-10-16T07:16:22;98451.22;;;14.74;97.20
69971;BME280;57301;50.328;8.542;2022-10-16T07:18:49;98453.09;;;15.03;95.62
69971;BME280;57301;50.328;8.542;2022-10-16T07:21:21;98456.38;;;15.13;94.82
69971;BME280;57301;50.328;8.542;2022-10-16T07:23:52;98462.84;;;15.04;95.31
69971;BME280;57301;50.328;8.542;2022-10-16T07:26:19;98463.69;;;15.19;94.36
69971;BME280;57301;50.328;8.542;2022-10-16T07:28:47;98470.38;;;15.23;94.77
69971;BME280;57301;50.328;8.542;2022-10-16T07:31:14;98476.97;;;15.36;93.71
69971;BME280;57301;50.328;8.542;2022-10-16T07:33:42;98482.94;;;14.93;95.36
69971;BME280;57301;50.328;8.542;2022-10-16T07:36:14;98484.88;;;14.99;95.52
69971;BME280;57301;50.328;8.542;2022-10-16T07:38:42;98500.28;;;14.83;96.13
69971;BME280;57301;50.328;8.542;2022-10-16T07:41:11;98494.31;;;14.72;96.89
69971;BME280;57301;50.328;8.542;2022-10-16T07:43:37;98509.47;;;14.88;96.43
69971;BME280;57301;50.328;8.542;2022-10-16T07:46:04;98515.59;;;14.97;96.38
69971;BME280;57301;50.328;8.542;2022-10-16T07:48:34;98509.81;;;15.08;95.02
69971;BME280;57301;50.328;8.542;2022-10-16T07:51:05;98520.59;;;15.23;94.48
69971;BME280;57301;50.328;8.542;2022-10-16T07:53:32;98516.94;;;15.16;95.44
69971;BME280;57301;50.328;8.542;2022-10-16T07:56:03;98516.34;;;15.28;95.22
69971;BME280;57301;50.328;8.542;2022-10-16T07:58:30;98528.91;;;15.13;94.89
69971;BME280;57301;50.328;8.542;2022-10-16T08:00:57;98535.78;;;14.93;96.54
69971;BME280;57301;50.328;8.542;2022-10-16T08:03:25;98530.78;;;14.90;96.79
69971;BME280;57301;50.328;8.542;2022-10-16T08:05:52;98533.53;;;15.04;96.33
69971;BME280;57301;50.328;8.542;2022-10-16T08:08:19;98537.69;;;15.22;95.41
69971;BME280;57301;50.328;8.542;2022-10-16T08:10:45;98540.34;;;15.30;94.46
69971;BME280;57301;50.328;8.542;2022-10-16T08:13:12;98536.44;;;15.32;95.17
69971;BME280;57301;50.328;8.542;2022-10-16T08:15:42;98539.78;;;15.49;93.88
69971;BME280;57301;50.328;8.542;2022-10-16T08:18:10;98543.44;;;15.71;93.34
69971;BME280;57301;50.328;8.542;2022-10-16T08:20:36;98550.03;;;15.69;92.80
69971;BME280;57301;50.328;8.542;2022-10-16T08:23:03;98558.75;;;15.85;92.34
69971;BME280;57301;50.328;8.542;2022-10-16T08:25:29;98564.84;;;15.65;92.98
69971;BME280;57301;50.328;8.542;2022-10-16T08:27:56;98565.88;;;15.93;92.12
69971;BME280;57301;50.328;8.542;2022-10-16T08:30:23;98563.75;;;15.89;90.81
69971;BME280;57301;50.328;8.542;2022-10-16T08:32:50;98576.38;;;16.03;90.84
69971;BME280;57301;50.328;8.542;2022-10-16T08:35:16;98576.00;;;15.91;90.85
69971;BME280;57301;50.328;8.542;2022-10-16T08:37:43;98578.41;;;16.01;90.47
69971;BME280;57301;50.328;8.542;2022-10-16T08:40:22;98581.25;;;16.14;90.35
69971;BME280;57301;50.328;8.542;2022-10-16T08:48:54;98605.69;;;16.27;89.33
69971;BME280;57301;50.328;8.542;2022-10-16T08:51:25;98603.81;;;16.28;89.10
69971;BME280;57301;50.328;8.542;2022-10-16T08:53:55;98615.31;;;16.07;90.77
69971;BME280;57301;50.328;8.542;2022-10-16T08:56:23;98609.38;;;16.11;91.34
69971;BME280;57301;50.328;8.542;2022-10-16T08:58:51;98605.91;;;16.32;91.28
69971;BME280;57301;50.328;8.542;2022-10-16T09:01:32;98594.41;;;16.38;89.86
69971;BME280;57301;50.328;8.542;2022-10-16T09:07:10;98584.69;;;16.23;89.76
69971;BME280;57301;50.328;8.542;2022-10-16T09:12:40;98599.47;;;16.27;89.65
69971;BME280;57301;50.328;8.542;2022-10-16T09:20:45;98609.91;;;16.51;89.07
69971;BME280;57301;50.328;8.542;2022-10-16T09:23:24;98616.91;;;16.67;88.80
69971;BME280;57301;50.328;8.542;2022-10-16T09:25:52;98621.53;;;16.22;89.28
69971;BME280;57301;50.328;8.542;2022-10-16T09:28:19;98626.16;;;16.43;88.89
69971;BME280;57301;50.328;8.542;2022-10-16T09:30:46;98632.09;;;16.38;88.14
69971;BME280;57301;50.328;8.542;2022-10-16T09:33:15;98631.25;;;16.38;89.30
69971;BME280;57301;50.328;8.542;2022-10-16T09:35:45;98626.06;;;16.87;88.04
69971;BME280;57301;50.328;8.542;2022-10-16T09:38:30;98635.66;;;17.11;83.72
69971;BME280;57301;50.328;8.542;2022-10-16T09:40:58;98640.25;;;16.60;87.09
69971;BME280;57301;50.328;8.542;2022-10-16T09:43:35;98636.72;;;16.45;88.40
69971;BME280;57301;50.328;8.542;2022-10-16T09:46:07;98647.81;;;16.86;87.44
69971;BME280;57301;50.328;8.542;2022-10-16T09:51:06;98653.16;;;16.64;86.37
69971;BME280;57301;50.328;8.542;2022-10-16T09:53:43;98659.13;;;16.45;88.17
69971;BME280;57301;50.328;8.542;2022-10-16T09:56:20;98668.31;;;16.21;89.81
69971;BME280;57301;50.328;8.542;2022-10-16T09:58:51;98675.81;;;15.96;92.28
69971;BME280;57301;50.328;8.542;2022-10-16T10:01:18;98672.00;;;16.50;90.45
69971;BME280;57301;50.328;8.542;2022-10-16T10:03:46;98666.25;;;16.53;88.83
69971;BME280;57301;50.328;8.542;2022-10-16T10:06:18;98668.06;;;16.67;88.18
69971;BME280;57301;50.328;8.542;2022-10-16T10:09:00;98668.38;;;16.57;88.65
69971;BME280;57301;50.328;8.542;2022-10-16T10:11:48;98662.63;;;16.46;87.78
69971;BME280;57301;50.328;8.542;2022-10-16T10:14:24;98661.44;;;16.33;88.11
69971;BME280;57301;50.328;8.542;2022-10-16T10:20:16;98659.06;;;16.75;87.25
69971;BME280;57301;50.328;8.542;2022-10-16T10:22:47;98650.00;;;16.76;87.57
69971;BME280;57301;50.328;8.542;2022-10-16T10:25:15;98648.50;;;17.09;85.86
69971;BME280;57301;50.328;8.542;2022-10-16T10:34:11;98644.28;;;16.85;86.14
69971;BME280;57301;50.328;8.542;2022-10-16T10:36:49;98655.38;;;16.61;85.93
69971;BME280;57301;50.328;8.542;2022-10-16T10:39:43;98653.34;;;16.48;86.52
69971;BME280;57301;50.328;8.542;2022-10-16T10:42:17;98650.97;;;16.89;85.51
69971;BME280;57301;50.328;8.542;2022-10-16T10:50:25;98643.56;;;21.30;64.25
69971;BME280;57301;50.328;8.542;2022-10-16T10:59:36;98637.84;;;24.00;57.22
69971;BME280;57301;50.328;8.542;2022-10-16T11:02:12;98639.63;;;23.29;56.11
69971;BME280;57301;50.328;8.542;2022-10-16T11:07:49;98632.19;;;25.17;51.55
69971;BME280;57301;50.328;8.542;2022-10-16T11:10:21;98630.22;;;25.75;51.03
69971;BME280;57301;50.328;8.542;2022-10-16T11:12:59;98623.97;;;25.45;50.52
69971;BME280;57301;50.328;8.542;2022-10-16T11:15:33;98627.88;;;26.00;49.50
69971;BME280;57301;50.328;8.542;2022-10-16T11:20:46;98631.09;;;22.95;56.23
69971;BME280;57301;50.328;8.542;2022-10-16T11:23:26;98637.69;;;21.39;62.63
69971;BME280;57301;50.328;8.542;2022-10-16T11:25:57;98643.81;;;20.83;65.85
69971;BME280;57301;50.328;8.542;2022-10-16T11:28:38;98637.97;;;20.22;68.99
69971;BME280;57301;50.328;8.542;2022-10-16T11:31:16;98633.97;;;20.31;69.21
69971;BME280;57301;50.328;8.542;2022-10-16T11:34:02;98632.44;;;19.83;71.91
69971;BME280;57301;50.328;8.542;2022-10-16T11:36:38;98626.84;;;20.43;67.91
69971;BME280;57301;50.328;8.542;2022-10-16T11:41:42;98623.34;;;21.57;65.75
69971;BME280;57301;50.328;8.542;2022-10-16T11:47:35;98622.25;;;19.66;68.22
69971;BME280;57301;50.328;8.542;2022-10-16T11:53:13;98638.44;;;19.52;69.01
69971;BME280;57301;50.328;8.542;2022-10-16T11:55:44;98626.78;;;19.98;70.59
69971;BME280;57301;50.328;8.542;2022-10-16T12:06:40;98624.34;;;21.63;62.92
69971;BME280;57301;50.328;8.542;2022-10-16T12:09:34;98635.25;;;21.56;65.41
69971;BME280;57301;50.328;8.542;2022-10-16T12:12:02;98635.38;;;21.43;66.54
69971;BME280;57301;50.328;8.542;2022-10-16T12:17:01;98629.84;;;21.25;66.06
69971;BME280;57301;50.328;8.542;2022-10-16T12:19:29;98640.94;;;22.96;62.15
69971;BME280;57301;50.328;8.542;2022-10-16T12:21:58;98640.34;;;25.45;55.58
69971;BME280;57301;50.328;8.542;2022-10-16T12:24:39;98647.84;;;26.01;53.37
69971;BME280;57301;50.328;8.542;2022-10-16T12:27:40;98632.63;;;23.75;58.88
69971;BME280;57301;50.328;8.542;2022-10-16T12:30:07;98626.13;;;24.11;58.33
69971;BME280;57301;50.328;8.542;2022-10-16T12:32:36;98633.13;;;23.83;58.71
69971;BME280;57301;50.328;8.542;2022-10-16T12:35:43;98625.91;;;23.36;60.56
69971;BME280;57301;50.328;8.542;2022-10-16T12:38:20;98626.84;;;21.64;66.67
69971;BME280;57301;50.328;8.542;2022-10-16T12:41:06;98631.09;;;20.19;71.25
69971;BME280;57301;50.328;8.542;2022-10-16T12:43:43;98635.09;;;19.37;76.52
69971;BME280;57301;50.328;8.542;2022-10-16T12:48:38;98646.28;;;19.21;77.07
69971;BME280;57301;50.328;8.542;2022-10-16T12:51:34;98655.69;;;18.29;80.62
69971;BME280;57301;50.328;8.542;2022-10-16T12:59:25;98656.34;;;20.78;71.28
69971;BME280;57301;50.328;8.542;2022-10-16T13:04:54;98661.88;;;20.51;70.64
69971;BME280;57301;50.328;8.542;2022-10-16T13:10:42;98660.72;;;23.99;56.15
69971;BME280;57301;50.328;8.542;2022-10-16T13:29:30;98674.06;;;23.65;52.96
69971;BME280;57301;50.328;8.542;2022-10-16T13:31:58;98672.69;;;23.14;54.39
69971;BME280;57301;50.328;8.542;2022-10-16T13:34:25;98661.06;;;23.79;54.68
69971;BME280;57301;50.328;8.542;2022-10-16T13:36:53;98658.94;;;24.91;49.93
69971;BME280;57301;50.328;8.542;2022-10-16T13:39:28;98660.91;;;23.32;54.16
69971;BME280;57301;50.328;8.542;2022-10-16T13:44:44;98674.00;;;22.75;54.06
69971;BME280;57301;50.328;8.542;2022-10-16T13:47:29;98662.97;;;22.88;54.87
69971;BME280;57301;50.328;8.542;2022-10-16T13:50:05;98658.91;;;22.97;54.45
69971;BME280;57301;50.328;8.542;2022-10-16T13:52:32;98663.41;;;23.33;54.49
69971;BME280;57301;50.328;8.542;2022-10-16T13:54:58;98671.13;;;22.88;55.25
69971;BME280;57301;50.328;8.542;2022-10-16T13:57:27;98663.44;;;24.98;50.13
69971;BME280;57301;50.328;8.542;2022-10-16T13:59:54;98667.34;;;24.61;49.72
69971;BME280;57301;50.328;8.542;2022-10-16T14:02:33;98665.41;;;23.68;51.80
69971;BME280;57301;50.328;8.542;2022-10-16T14:05:03;98680.56;;;21.56;58.00
69971;BME280;57301;50.328;8.542;2022-10-16T14:07:32;98672.78;;;21.59;57.87
69971;BME280;57301;50.328;8.542;2022-10-16T14:10:03;98669.72;;;21.81;58.40
69971;BME280;57301;50.328;8.542;2022-10-16T14:12:31;98666.91;;;22.37;56.71
69971;BME280;57301;50.328;8.542;2022-10-16T14:14:59;98666.06;;;22.18;57.21
69971;BME280;57301;50.328;8.542;2022-10-16T14:17:31;98669.31;;;22.45;56.99
69971;BME280;57301;50.328;8.542;2022-10-16T14:20:00;98671.44;;;22.25;57.81
69971;BME280;57301;50.328;8.542;2022-10-16T14:22:39;98679.03;;;20.90;61.78
69971;BME280;57301;50.328;8.542;2022-10-16T14:30:34;98664.94;;;20.75;63.92
69971;BME280;57301;50.328;8.542;2022-10-16T14:33:04;98659.09;;;20.71;64.24
69971;BME280;57301;50.328;8.542;2022-10-16T14:35:38;98662.38;;;20.02;67.53
69971;BME280;57301;50.328;8.542;2022-10-16T14:38:14;98667.16;;;19.93;68.55
69971;BME280;57301;50.328;8.542;2022-10-16T14:40:47;98671.13;;;20.10;68.68
69971;BME280;57301;50.328;8.542;2022-10-16T14:43:31;98678.81;;;20.20;69.26
69971;BME280;57301;50.328;8.542;2022-10-16T14:45:58;98676.19;;;20.72;67.30
69971;BME280;57301;50.328;8.542;2022-10-16T14:48:25;98680.75;;;20.78;66.95
69971;BME280;57301;50.328;8.542;2022-10-16T14:50:52;98674.81;;;20.49;67.04
69971;BME280;57301;50.328;8.542;2022-10-16T14:53:18;98680.09;;;19.84;69.91
69971;BME280;57301;50.328;8.542;2022-10-16T14:55:45;98665.28;;;19.47;71.37
69971;BME280;57301;50.328;8.542;2022-10-16T14:58:22;98675.03;;;19.35;72.15
69971;BME280;57301;50.328;8.542;2022-10-16T15:00:49;98674.13;;;19.08;74.10
69971;BME280;57301;50.328;8.542;2022-10-16T15:03:15;98664.16;;;19.09;73.78
69971;BME280;57301;50.328;8.542;2022-10-16T15:05:42;98680.03;;;19.51;72.76
69971;BME280;57301;50.328;8.542;2022-10-16T15:08:09;98672.09;;;19.23;73.87
69971;BME280;57301;50.328;8.542;2022-10-16T15:10:39;98671.63;;;19.06;75.04
69971;BME280;57301;50.328;8.542;2022-10-16T15:13:10;98679.47;;;18.88;75.65
69971;BME280;57301;50.328;8.542;2022-10-16T15:15:41;98679.97;;;19.05;75.87